sensor_id;sensor_type;location;lat;lon;timestamp;P1;durP1;ratioP1;P2;durP2;ratioP2
56285;SDS011;42191;47.562;9.686;2022-12-07T00:01:55;43.20;;;40.08;;
56285;SDS011;42191;47.562;9.686;2022-12-07T00:04:21;45.15;;;41.75;;
56285;SDS011;42191;47.562;9.686;2022-12-07T00:06:50;44.75;;;41.42;;
56285;SDS011;42191;47.562;9.686;2022-12-07T00:09:17;44.33;;;41.13;;
56285;SDS011;42191;47.562;9.686;2022-12-07T00:11:48;44.83;;;41.53;;
56285;SDS011;42191;47.562;9.686;2022-12-07T00:14:15;43.53;;;40.42;;
56285;SDS011;42191;47.562;9.686;2022-12-07T00:16:42;43.00;;;39.83;;
56285;SDS011;42191;47.562;9.686;2022-12-07T00:19:09;43.25;;;40.05;;
56285;SDS011;42191;47.562;9.686;2022-12-07T00:21:37;43.75;;;40.65;;
56285;SDS011;42191;47.562;9.686;2022-12-07T00:24:04;40.70;;;37.67;;
56285;SDS011;42191;47.562;9.686;2022-12-07T00:26:32;44.63;;;41.42;;
56285;SDS011;42191;47.562;9.686;2022-12-07T00:29:01;42.50;;;39.40;;
56285;SDS011;42191;47.562;9.686;2022-12-07T00:31:30;43.85;;;40.65;;
56285;SDS011;42191;47.562;9.686;2022-12-07T00:33:58;44.65;;;41.47;;
56285;SDS011;42191;47.562;9.686;2022-12-07T00:36:24;43.05;;;39.97;;
56285;SDS011;42191;47.562;9.686;2022-12-07T00:38:51;43.45;;;40.40;;
56285;SDS011;42191;47.562;9.686;2022-12-07T00:41:19;40.92;;;38.03;;
56285;SDS011;42191;47.562;9.686;2022-12-07T00:43:48;45.75;;;42.38;;
56285;SDS011;42191;47.562;9.686;2022-12-07T00:46:15;42.72;;;39.72;;
56285;SDS011;42191;47.562;9.686;2022-12-07T00:48:42;44.90;;;41.75;;
56285;SDS011;42191;47.562;9.686;2022-12-07T00:51:09;45.65;;;42.38;;
56285;SDS011;42191;47.562;9.686;2022-12-07T00:53:37;45.25;;;42.05;;
56285;SDS011;42191;47.562;9.686;2022-12-07T00:56:07;43.35;;;40.25;;
56285;SDS011;42191;47.562;9.686;2022-12-07T00:58:34;44.47;;;41.40;;
56285;SDS011;42191;47.562;9.686;2022-12-07T01:01:02;42.88;;;39.78;;
56285;SDS011;42191;47.562;9.686;2022-12-07T01:03:29;43.92;;;40.83;;
56285;SDS011;42191;47.562;9.686;2022-12-07T01:05:56;43.17;;;40.08;;
56285;SDS011;42191;47.562;9.686;2022-12-07T01:08:23;43.70;;;40.45;;
56285;SDS011;42191;47.562;9.686;2022-12-07T01:10:57;43.38;;;40.38;;
56285;SDS011;42191;47.562;9.686;2022-12-07T01:13:24;42.78;;;39.42;;
56285;SDS011;42191;47.562;9.686;2022-12-07T01:15:50;44.20;;;41.08;;
56285;SDS011;42191;47.562;9.686;2022-12-07T01:18:17;43.78;;;40.67;;
56285;SDS011;42191;47.562;9.686;2022-12-07T01:20:43;41.80;;;38.75;;
56285;SDS011;42191;47.562;9.686;2022-12-07T01:23:09;43.65;;;40.45;;
56285;SDS011;42191;47.562;9.686;2022-12-07T01:25:35;44.58;;;41.45;;
56285;SDS011;42191;47.562;9.686;2022-12-07T01:28:01;43.55;;;40.55;;
56285;SDS011;42191;47.562;9.686;2022-12-07T01:30:27;44.25;;;41.15;;
56285;SDS011;42191;47.562;9.686;2022-12-07T01:32:54;43.60;;;40.58;;
56285;SDS011;42191;47.562;9.686;2022-12-07T01:35:20;42.53;;;39.42;;
56285;SDS011;42191;47.562;9.686;2022-12-07T01:37:46;43.55;;;40.35;;
56285;SDS011;42191;47.562;9.686;2022-12-07T01:40:12;44.53;;;41.33;;
56285;SDS011;42191;47.562;9.686;2022-12-07T01:42:39;42.70;;;39.55;;
56285;SDS011;42191;47.562;9.686;2022-12-07T01:47:55;41.92;;;38.85;;
56285;SDS011;42191;47.562;9.686;2022-12-07T01:50:24;42.97;;;40.00;;
56285;SDS011;42191;47.562;9.686;2022-12-07T01:52:51;42.40;;;39.38;;
56285;SDS011;42191;47.562;9.686;2022-12-07T01:55:21;43.83;;;40.83;;
56285;SDS011;42191;47.562;9.686;2022-12-07T01:57:48;42.40;;;39.40;;
56285;SDS011;42191;47.562;9.686;2022-12-07T02:00:16;42.90;;;39.90;;
56285;SDS011;42191;47.562;9.686;2022-12-07T02:02:57;44.15;;;41.03;;
56285;SDS011;42191;47.562;9.686;2022-12-07T02:05:32;44.60;;;41.50;;
56285;SDS011;42191;47.562;9.686;2022-12-07T02:08:00;42.58;;;39.55;;
56285;SDS011;42191;47.562;9.686;2022-12-07T02:10:28;45.35;;;42.13;;
56285;SDS011;42191;47.562;9.686;2022-12-07T02:13:09;46.50;;;43.25;;
56285;SDS011;42191;47.562;9.686;2022-12-07T02:15:55;44.25;;;41.10;;
56285;SDS011;42191;47.562;9.686;2022-12-07T02:21:03;44.90;;;41.67;;
56285;SDS011;42191;47.562;9.686;2022-12-07T02:23:45;43.10;;;40.03;;
56285;SDS011;42191;47.562;9.686;2022-12-07T02:32:33;43.85;;;40.75;;
56285;SDS011;42191;47.562;9.686;2022-12-07T02:34:59;45.17;;;41.95;;
56285;SDS011;42191;47.562;9.686;2022-12-07T02:40:19;43.65;;;40.70;;
56285;SDS011;42191;47.562;9.686;2022-12-07T02:43:02;42.53;;;39.42;;
56285;SDS011;42191;47.562;9.686;2022-12-07T02:45:33;42.15;;;39.15;;
56285;SDS011;42191;47.562;9.686;2022-12-07T02:48:03;42.45;;;39.40;;
56285;SDS011;42191;47.562;9.686;2022-12-07T02:50:31;42.35;;;39.08;;
56285;SDS011;42191;47.562;9.686;2022-12-07T02:52:57;43.80;;;40.25;;
56285;SDS011;42191;47.562;9.686;2022-12-07T02:55:32;42.40;;;39.50;;
56285;SDS011;42191;47.562;9.686;2022-12-07T03:03:17;45.25;;;41.88;;
56285;SDS011;42191;47.562;9.686;2022-12-07T03:11:12;41.60;;;38.63;;
56285;SDS011;42191;47.562;9.686;2022-12-07T03:14:09;41.35;;;38.35;;
56285;SDS011;42191;47.562;9.686;2022-12-07T03:16:49;42.45;;;39.45;;
56285;SDS011;42191;47.562;9.686;2022-12-07T03:19:22;42.03;;;39.22;;
56285;SDS011;42191;47.562;9.686;2022-12-07T03:21:52;42.40;;;39.55;;
56285;SDS011;42191;47.562;9.686;2022-12-07T03:24:26;42.65;;;39.65;;
56285;SDS011;42191;47.562;9.686;2022-12-07T03:26:59;41.58;;;38.83;;
56285;SDS011;42191;47.562;9.686;2022-12-07T03:29:38;43.20;;;40.30;;
56285;SDS011;42191;47.562;9.686;2022-12-07T03:32:16;40.27;;;37.47;;
56285;SDS011;42191;47.562;9.686;2022-12-07T03:34:54;40.58;;;37.78;;
56285;SDS011;42191;47.562;9.686;2022-12-07T03:38:02;43.35;;;40.28;;
56285;SDS011;42191;47.562;9.686;2022-12-07T03:40:25;43.42;;;40.38;;
56285;SDS011;42191;47.562;9.686;2022-12-07T03:43:11;42.38;;;39.38;;
56285;SDS011;42191;47.562;9.686;2022-12-07T03:45:45;40.60;;;37.72;;
56285;SDS011;42191;47.562;9.686;2022-12-07T03:48:25;42.55;;;39.55;;
56285;SDS011;42191;47.562;9.686;2022-12-07T03:51:01;42.33;;;39.47;;
56285;SDS011;42191;47.562;9.686;2022-12-07T03:56:19;42.97;;;39.95;;
56285;SDS011;42191;47.562;9.686;2022-12-07T03:58:46;43.42;;;40.38;;
56285;SDS011;42191;47.562;9.686;2022-12-07T04:01:13;45.13;;;41.95;;
56285;SDS011;42191;47.562;9.686;2022-12-07T04:03:39;43.33;;;40.13;;
56285;SDS011;42191;47.562;9.686;2022-12-07T04:06:05;43.05;;;39.97;;
56285;SDS011;42191;47.562;9.686;2022-12-07T04:08:32;42.38;;;39.45;;
56285;SDS011;42191;47.562;9.686;2022-12-07T04:10:58;42.47;;;39.47;;
56285;SDS011;42191;47.562;9.686;2022-12-07T04:13:24;42.67;;;39.67;;
56285;SDS011;42191;47.562;9.686;2022-12-07T04:15:50;42.65;;;39.55;;
56285;SDS011;42191;47.562;9.686;2022-12-07T04:18:16;43.05;;;40.05;;
56285;SDS011;42191;47.562;9.686;2022-12-07T04:20:43;42.83;;;39.85;;
56285;SDS011;42191;47.562;9.686;2022-12-07T04:23:10;42.78;;;39.67;;
56285;SDS011;42191;47.562;9.686;2022-12-07T04:25:36;42.30;;;39.20;;
56285;SDS011;42191;47.562;9.686;2022-12-07T04:28:02;42.08;;;39.17;;
56285;SDS011;42191;47.562;9.686;2022-12-07T04:30:28;43.83;;;40.63;;
56285;SDS011;42191;47.562;9.686;2022-12-07T04:32:55;44.45;;;41.35;;
56285;SDS011;42191;47.562;9.686;2022-12-07T04:35:21;43.60;;;40.60;;
56285;SDS011;42191;47.562;9.686;2022-12-07T04:37:47;41.20;;;38.25;;
56285;SDS011;42191;47.562;9.686;2022-12-07T04:40:13;41.85;;;39.05;;
56285;SDS011;42191;47.562;9.686;2022-12-07T04:42:39;41.22;;;38.40;;
56285;SDS011;42191;47.562;9.686;2022-12-07T04:45:05;42.42;;;39.25;;
56285;SDS011;42191;47.562;9.686;2022-12-07T04:47:32;40.92;;;38.13;;
56285;SDS011;42191;47.562;9.686;2022-12-07T04:49:59;42.83;;;39.78;;
56285;SDS011;42191;47.562;9.686;2022-12-07T04:52:25;42.25;;;39.40;;
56285;SDS011;42191;47.562;9.686;2022-12-07T04:54:51;43.60;;;40.60;;
56285;SDS011;42191;47.562;9.686;2022-12-07T04:57:17;41.75;;;38.75;;
56285;SDS011;42191;47.562;9.686;2022-12-07T04:59:43;41.25;;;38.45;;
56285;SDS011;42191;47.562;9.686;2022-12-07T05:02:09;41.92;;;39.03;;
56285;SDS011;42191;47.562;9.686;2022-12-07T05:04:35;43.78;;;40.60;;
56285;SDS011;42191;47.562;9.686;2022-12-07T05:07:01;42.95;;;39.92;;
56285;SDS011;42191;47.562;9.686;2022-12-07T05:09:27;41.42;;;38.63;;
56285;SDS011;42191;47.562;9.686;2022-12-07T05:11:54;41.88;;;38.97;;
56285;SDS011;42191;47.562;9.686;2022-12-07T05:14:20;41.80;;;38.92;;
56285;SDS011;42191;47.562;9.686;2022-12-07T05:16:48;44.47;;;41.50;;
56285;SDS011;42191;47.562;9.686;2022-12-07T05:19:15;41.30;;;38.50;;
56285;SDS011;42191;47.562;9.686;2022-12-07T05:21:42;42.63;;;39.63;;
56285;SDS011;42191;47.562;9.686;2022-12-07T05:24:09;41.20;;;38.38;;
56285;SDS011;42191;47.562;9.686;2022-12-07T05:26:38;43.90;;;40.90;;
56285;SDS011;42191;47.562;9.686;2022-12-07T05:29:04;43.42;;;40.33;;
56285;SDS011;42191;47.562;9.686;2022-12-07T05:31:31;44.00;;;40.75;;
56285;SDS011;42191;47.562;9.686;2022-12-07T05:33:57;43.80;;;40.70;;
56285;SDS011;42191;47.562;9.686;2022-12-07T05:36:23;44.08;;;40.70;;
56285;SDS011;42191;47.562;9.686;2022-12-07T05:38:49;46.35;;;42.90;;
56285;SDS011;42191;47.562;9.686;2022-12-07T05:41:17;42.78;;;39.78;;
56285;SDS011;42191;47.562;9.686;2022-12-07T05:44:03;44.95;;;41.72;;
56285;SDS011;42191;47.562;9.686;2022-12-07T05:46:29;43.60;;;40.47;;
56285;SDS011;42191;47.562;9.686;2022-12-07T05:48:56;45.90;;;42.60;;
56285;SDS011;42191;47.562;9.686;2022-12-07T05:51:22;45.47;;;42.08;;
56285;SDS011;42191;47.562;9.686;2022-12-07T05:53:48;44.30;;;41.13;;
56285;SDS011;42191;47.562;9.686;2022-12-07T05:56:14;43.60;;;40.40;;
56285;SDS011;42191;47.562;9.686;2022-12-07T05:58:41;45.22;;;41.92;;
56285;SDS011;42191;47.562;9.686;2022-12-07T06:01:26;42.92;;;39.80;;
56285;SDS011;42191;47.562;9.686;2022-12-07T06:03:52;45.22;;;41.97;;
56285;SDS011;42191;47.562;9.686;2022-12-07T06:06:18;45.42;;;42.22;;
56285;SDS011;42191;47.562;9.686;2022-12-07T06:08:51;43.97;;;40.78;;
56285;SDS011;42191;47.562;9.686;2022-12-07T06:11:17;42.28;;;39.35;;
56285;SDS011;42191;47.562;9.686;2022-12-07T06:14:02;43.33;;;39.95;;
56285;SDS011;42191;47.562;9.686;2022-12-07T06:16:28;42.53;;;39.47;;
56285;SDS011;42191;47.562;9.686;2022-12-07T06:18:54;44.67;;;41.28;;
56285;SDS011;42191;47.562;9.686;2022-12-07T06:21:20;45.60;;;42.42;;
56285;SDS011;42191;47.562;9.686;2022-12-07T06:23:47;43.33;;;40.15;;
56285;SDS011;42191;47.562;9.686;2022-12-07T06:26:13;43.10;;;40.05;;
56285;SDS011;42191;47.562;9.686;2022-12-07T06:28:39;45.75;;;42.40;;
56285;SDS011;42191;47.562;9.686;2022-12-07T06:31:06;44.65;;;41.38;;
56285;SDS011;42191;47.562;9.686;2022-12-07T06:33:32;42.13;;;39.13;;
56285;SDS011;42191;47.562;9.686;2022-12-07T06:35:58;46.33;;;43.03;;
56285;SDS011;42191;47.562;9.686;2022-12-07T06:38:24;42.55;;;39.50;;
56285;SDS011;42191;47.562;9.686;2022-12-07T06:40:50;44.03;;;40.92;;
56285;SDS011;42191;47.562;9.686;2022-12-07T06:43:16;44.50;;;41.40;;
56285;SDS011;42191;47.562;9.686;2022-12-07T06:45:43;44.78;;;41.63;;
56285;SDS011;42191;47.562;9.686;2022-12-07T06:48:09;43.97;;;40.88;;
56285;SDS011;42191;47.562;9.686;2022-12-07T06:50:35;44.00;;;40.90;;
56285;SDS011;42191;47.562;9.686;2022-12-07T06:53:01;43.92;;;40.85;;
56285;SDS011;42191;47.562;9.686;2022-12-07T06:55:27;46.30;;;43.00;;
56285;SDS011;42191;47.562;9.686;2022-12-07T06:57:53;42.92;;;39.83;;
56285;SDS011;42191;47.562;9.686;2022-12-07T07:00:20;45.80;;;42.45;;
56285;SDS011;42191;47.562;9.686;2022-12-07T07:02:46;46.58;;;43.10;;
56285;SDS011;42191;47.562;9.686;2022-12-07T07:05:12;45.05;;;41.80;;
56285;SDS011;42191;47.562;9.686;2022-12-07T07:07:38;46.00;;;42.60;;
56285;SDS011;42191;47.562;9.686;2022-12-07T07:10:05;46.60;;;43.10;;
56285;SDS011;42191;47.562;9.686;2022-12-07T07:12:31;45.90;;;42.47;;
56285;SDS011;42191;47.562;9.686;2022-12-07T07:14:57;46.53;;;43.00;;
56285;SDS011;42191;47.562;9.686;2022-12-07T07:17:24;46.92;;;43.33;;
56285;SDS011;42191;47.562;9.686;2022-12-07T07:19:50;45.83;;;42.47;;
56285;SDS011;42191;47.562;9.686;2022-12-07T07:22:16;45.55;;;42.15;;
56285;SDS011;42191;47.562;9.686;2022-12-07T07:24:42;45.25;;;41.85;;
56285;SDS011;42191;47.562;9.686;2022-12-07T07:27:08;47.97;;;44.38;;
56285;SDS011;42191;47.562;9.686;2022-12-07T07:29:34;46.90;;;43.40;;
56285;SDS011;42191;47.562;9.686;2022-12-07T07:32:01;48.50;;;44.75;;
56285;SDS011;42191;47.562;9.686;2022-12-07T07:34:27;44.88;;;41.38;;
56285;SDS011;42191;47.562;9.686;2022-12-07T07:36:53;48.10;;;44.50;;
56285;SDS011;42191;47.562;9.686;2022-12-07T07:39:19;44.05;;;40.75;;
56285;SDS011;42191;47.562;9.686;2022-12-07T07:41:46;47.03;;;43.53;;
56285;SDS011;42191;47.562;9.686;2022-12-07T07:44:12;45.67;;;42.17;;
56285;SDS011;42191;47.562;9.686;2022-12-07T07:46:38;45.95;;;42.50;;
56285;SDS011;42191;47.562;9.686;2022-12-07T07:49:04;47.78;;;44.08;;
56285;SDS011;42191;47.562;9.686;2022-12-07T07:51:30;47.10;;;43.42;;
56285;SDS011;42191;47.562;9.686;2022-12-07T07:53:56;47.55;;;43.80;;
56285;SDS011;42191;47.562;9.686;2022-12-07T07:56:23;48.75;;;44.95;;
56285;SDS011;42191;47.562;9.686;2022-12-07T07:58:51;47.25;;;43.75;;
56285;SDS011;42191;47.562;9.686;2022-12-07T08:01:18;46.13;;;42.53;;
56285;SDS011;42191;47.562;9.686;2022-12-07T08:03:45;47.55;;;44.00;;
56285;SDS011;42191;47.562;9.686;2022-12-07T08:06:11;47.78;;;44.10;;
56285;SDS011;42191;47.562;9.686;2022-12-07T08:08:38;47.53;;;43.78;;
56285;SDS011;42191;47.562;9.686;2022-12-07T08:11:04;47.22;;;43.30;;
56285;SDS011;42191;47.562;9.686;2022-12-07T08:13:31;48.03;;;44.47;;
56285;SDS011;42191;47.562;9.686;2022-12-07T08:15:57;48.92;;;45.28;;
56285;SDS011;42191;47.562;9.686;2022-12-07T08:18:28;44.65;;;41.05;;
56285;SDS011;42191;47.562;9.686;2022-12-07T08:20:58;47.72;;;44.08;;
56285;SDS011;42191;47.562;9.686;2022-12-07T08:23:25;45.55;;;42.05;;
56285;SDS011;42191;47.562;9.686;2022-12-07T08:25:52;46.58;;;42.97;;
56285;SDS011;42191;47.562;9.686;2022-12-07T08:28:18;48.58;;;44.75;;
56285;SDS011;42191;47.562;9.686;2022-12-07T08:30:44;46.63;;;42.97;;
56285;SDS011;42191;47.562;9.686;2022-12-07T08:33:10;47.13;;;43.55;;
56285;SDS011;42191;47.562;9.686;2022-12-07T08:35:36;47.13;;;43.53;;
56285;SDS011;42191;47.562;9.686;2022-12-07T08:38:03;48.58;;;44.97;;
56285;SDS011;42191;47.562;9.686;2022-12-07T08:40:29;46.78;;;42.97;;
56285;SDS011;42191;47.562;9.686;2022-12-07T08:42:55;44.65;;;41.25;;
56285;SDS011;42191;47.562;9.686;2022-12-07T08:45:22;45.70;;;42.17;;
56285;SDS011;42191;47.562;9.686;2022-12-07T08:47:55;47.55;;;43.88;;
56285;SDS011;42191;47.562;9.686;2022-12-07T08:50:26;46.00;;;42.50;;
56285;SDS011;42191;47.562;9.686;2022-12-07T08:52:54;46.05;;;42.55;;
56285;SDS011;42191;47.562;9.686;2022-12-07T08:55:22;47.08;;;43.67;;
56285;SDS011;42191;47.562;9.686;2022-12-07T08:57:49;45.45;;;42.17;;
56285;SDS011;42191;47.562;9.686;2022-12-07T09:00:17;46.60;;;42.78;;
56285;SDS011;42191;47.562;9.686;2022-12-07T09:02:44;46.72;;;43.22;;
56285;SDS011;42191;47.562;9.686;2022-12-07T09:05:11;47.08;;;43.45;;
56285;SDS011;42191;47.562;9.686;2022-12-07T09:07:39;48.47;;;44.25;;
56285;SDS011;42191;47.562;9.686;2022-12-07T09:10:07;44.97;;;41.58;;
56285;SDS011;42191;47.562;9.686;2022-12-07T09:12:34;43.95;;;40.65;;
56285;SDS011;42191;47.562;9.686;2022-12-07T09:15:00;46.03;;;42.53;;
56285;SDS011;42191;47.562;9.686;2022-12-07T09:17:26;49.45;;;45.75;;
56285;SDS011;42191;47.562;9.686;2022-12-07T09:19:52;45.17;;;41.78;;
56285;SDS011;42191;47.562;9.686;2022-12-07T09:22:18;45.60;;;42.20;;
56285;SDS011;42191;47.562;9.686;2022-12-07T09:24:45;46.88;;;43.33;;
56285;SDS011;42191;47.562;9.686;2022-12-07T09:27:11;45.00;;;41.60;;
56285;SDS011;42191;47.562;9.686;2022-12-07T09:29:38;44.30;;;41.00;;
56285;SDS011;42191;47.562;9.686;2022-12-07T09:32:04;46.17;;;42.83;;
56285;SDS011;42191;47.562;9.686;2022-12-07T09:34:30;44.00;;;40.85;;
56285;SDS011;42191;47.562;9.686;2022-12-07T09:36:57;43.47;;;40.08;;
56285;SDS011;42191;47.562;9.686;2022-12-07T09:39:25;45.78;;;42.38;;
56285;SDS011;42191;47.562;9.686;2022-12-07T09:41:51;46.08;;;42.67;;
56285;SDS011;42191;47.562;9.686;2022-12-07T09:44:20;47.60;;;43.95;;
56285;SDS011;42191;47.562;9.686;2022-12-07T09:46:49;41.92;;;38.85;;
56285;SDS011;42191;47.562;9.686;2022-12-07T09:49:19;45.85;;;42.40;;
56285;SDS011;42191;47.562;9.686;2022-12-07T09:52:02;44.70;;;41.40;;
56285;SDS011;42191;47.562;9.686;2022-12-07T09:54:44;44.33;;;40.83;;
56285;SDS011;42191;47.562;9.686;2022-12-07T09:57:13;43.40;;;40.40;;
56285;SDS011;42191;47.562;9.686;2022-12-07T09:59:40;40.63;;;37.70;;
56285;SDS011;42191;47.562;9.686;2022-12-07T10:02:23;42.67;;;39.72;;
56285;SDS011;42191;47.562;9.686;2022-12-07T10:05:21;42.10;;;39.13;;
56285;SDS011;42191;47.562;9.686;2022-12-07T10:07:51;41.20;;;38.13;;
56285;SDS011;42191;47.562;9.686;2022-12-07T10:10:38;41.92;;;38.97;;
56285;SDS011;42191;47.562;9.686;2022-12-07T10:13:09;41.33;;;38.45;;
56285;SDS011;42191;47.562;9.686;2022-12-07T10:18:19;42.90;;;39.72;;
56285;SDS011;42191;47.562;9.686;2022-12-07T10:23:39;43.85;;;40.55;;
56285;SDS011;42191;47.562;9.686;2022-12-07T10:26:21;42.45;;;39.55;;
56285;SDS011;42191;47.562;9.686;2022-12-07T10:28:53;43.22;;;39.97;;
56285;SDS011;42191;47.562;9.686;2022-12-07T10:31:21;42.25;;;39.25;;
56285;SDS011;42191;47.562;9.686;2022-12-07T10:36:18;43.42;;;40.28;;
56285;SDS011;42191;47.562;9.686;2022-12-07T10:39:26;44.10;;;40.67;;
56285;SDS011;42191;47.562;9.686;2022-12-07T10:41:56;44.00;;;40.90;;
56285;SDS011;42191;47.562;9.686;2022-12-07T10:44:29;41.70;;;38.55;;
56285;SDS011;42191;47.562;9.686;2022-12-07T10:47:09;42.72;;;39.60;;
56285;SDS011;42191;47.562;9.686;2022-12-07T10:49:53;44.25;;;41.15;;
56285;SDS011;42191;47.562;9.686;2022-12-07T11:06:39;43.33;;;40.25;;
56285;SDS011;42191;47.562;9.686;2022-12-07T11:09:26;42.33;;;39.03;;
56285;SDS011;42191;47.562;9.686;2022-12-07T11:12:17;42.80;;;39.63;;
56285;SDS011;42191;47.562;9.686;2022-12-07T11:18:24;43.83;;;40.58;;
56285;SDS011;42191;47.562;9.686;2022-12-07T11:29:24;43.17;;;39.88;;
56285;SDS011;42191;47.562;9.686;2022-12-07T11:32:28;41.97;;;38.88;;
56285;SDS011;42191;47.562;9.686;2022-12-07T11:35:21;44.00;;;40.80;;
56285;SDS011;42191;47.562;9.686;2022-12-07T11:38:15;42.88;;;39.42;;
56285;SDS011;42191;47.562;9.686;2022-12-07T11:40:48;43.17;;;39.72;;
56285;SDS011;42191;47.562;9.686;2022-12-07T11:43:26;43.50;;;40.30;;
56285;SDS011;42191;47.562;9.686;2022-12-07T11:46:02;44.80;;;41.30;;
56285;SDS011;42191;47.562;9.686;2022-12-07T11:51:07;44.72;;;41.13;;
56285;SDS011;42191;47.562;9.686;2022-12-07T11:53:42;45.30;;;41.85;;
56285;SDS011;42191;47.562;9.686;2022-12-07T11:56:14;44.72;;;41.20;;
56285;SDS011;42191;47.562;9.686;2022-12-07T11:58:53;42.53;;;39.35;;
56285;SDS011;42191;47.562;9.686;2022-12-07T12:07:19;45.33;;;41.92;;
56285;SDS011;42191;47.562;9.686;2022-12-07T12:09:49;42.90;;;39.70;;
56285;SDS011;42191;47.562;9.686;2022-12-07T12:25:26;44.03;;;40.63;;
56285;SDS011;42191;47.562;9.686;2022-12-07T12:27:57;44.28;;;40.90;;
56285;SDS011;42191;47.562;9.686;2022-12-07T12:30:26;44.20;;;40.75;;
56285;SDS011;42191;47.562;9.686;2022-12-07T12:33:22;45.45;;;41.78;;
56285;SDS011;42191;47.562;9.686;2022-12-07T12:47:00;43.25;;;39.85;;
56285;SDS011;42191;47.562;9.686;2022-12-07T13:02:26;43.28;;;39.88;;
56285;SDS011;42191;47.562;9.686;2022-12-07T13:10:08;44.42;;;41.00;;
56285;SDS011;42191;47.562;9.686;2022-12-07T13:29:27;45.78;;;41.97;;
56285;SDS011;42191;47.562;9.686;2022-12-07T13:31:32;44.58;;;40.88;;
56285;SDS011;42191;47.562;9.686;2022-12-07T13:33:59;45.55;;;41.90;;
56285;SDS011;42191;47.562;9.686;2022-12-07T13:36:27;44.70;;;41.22;;
56285;SDS011;42191;47.562;9.686;2022-12-07T13:39:09;46.35;;;42.35;;
56285;SDS011;42191;47.562;9.686;2022-12-07T13:41:42;43.90;;;40.25;;
56285;SDS011;42191;47.562;9.686;2022-12-07T13:44:11;46.28;;;42.45;;
56285;SDS011;42191;47.562;9.686;2022-12-07T13:49:27;46.85;;;42.92;;
56285;SDS011;42191;47.562;9.686;2022-12-07T13:52:07;46.60;;;42.42;;
56285;SDS011;42191;47.562;9.686;2022-12-07T13:54:43;43.75;;;40.45;;
56285;SDS011;42191;47.562;9.686;2022-12-07T13:57:33;43.15;;;39.85;;
56285;SDS011;42191;47.562;9.686;2022-12-07T14:00:01;45.17;;;41.47;;
56285;SDS011;42191;47.562;9.686;2022-12-07T14:02:31;47.10;;;43.42;;
56285;SDS011;42191;47.562;9.686;2022-12-07T14:05:14;46.35;;;42.28;;
56285;SDS011;42191;47.562;9.686;2022-12-07T14:07:48;45.78;;;42.00;;
56285;SDS011;42191;47.562;9.686;2022-12-07T14:10:29;43.45;;;39.63;;
56285;SDS011;42191;47.562;9.686;2022-12-07T14:12:57;47.20;;;43.45;;
56285;SDS011;42191;47.562;9.686;2022-12-07T14:15:27;47.35;;;43.50;;
56285;SDS011;42191;47.562;9.686;2022-12-07T14:17:58;45.05;;;41.55;;
56285;SDS011;42191;47.562;9.686;2022-12-07T14:22:55;44.38;;;40.88;;
56285;SDS011;42191;47.562;9.686;2022-12-07T14:25:25;45.17;;;41.28;;
56285;SDS011;42191;47.562;9.686;2022-12-07T14:30:23;44.55;;;40.75;;
56285;SDS011;42191;47.562;9.686;2022-12-07T14:33:02;45.50;;;41.95;;
56285;SDS011;42191;47.562;9.686;2022-12-07T14:35:29;45.13;;;41.63;;
56285;SDS011;42191;47.562;9.686;2022-12-07T14:37:56;44.30;;;40.90;;
56285;SDS011;42191;47.562;9.686;2022-12-07T14:40:26;43.20;;;39.78;;
56285;SDS011;42191;47.562;9.686;2022-12-07T14:42:57;46.75;;;43.10;;
56285;SDS011;42191;47.562;9.686;2022-12-07T14:45:27;43.33;;;40.05;;
56285;SDS011;42191;47.562;9.686;2022-12-07T14:47:53;45.70;;;42.22;;
56285;SDS011;42191;47.562;9.686;2022-12-07T14:50:20;45.35;;;41.97;;
56285;SDS011;42191;47.562;9.686;2022-12-07T14:52:50;45.15;;;40.85;;
56285;SDS011;42191;47.562;9.686;2022-12-07T14:55:24;43.95;;;40.47;;
56285;SDS011;42191;47.562;9.686;2022-12-07T14:57:52;44.03;;;40.60;;
56285;SDS011;42191;47.562;9.686;2022-12-07T15:00:19;42.30;;;39.10;;
56285;SDS011;42191;47.562;9.686;2022-12-07T15:02:48;44.38;;;41.13;;
56285;SDS011;42191;47.562;9.686;2022-12-07T15:05:14;46.10;;;42.58;;
56285;SDS011;42191;47.562;9.686;2022-12-07T15:07:41;43.40;;;39.90;;
56285;SDS011;42191;47.562;9.686;2022-12-07T15:10:13;45.33;;;41.72;;
56285;SDS011;42191;47.562;9.686;2022-12-07T15:12:41;43.92;;;40.58;;
56285;SDS011;42191;47.562;9.686;2022-12-07T15:15:07;43.95;;;40.50;;
56285;SDS011;42191;47.562;9.686;2022-12-07T15:17:33;43.33;;;39.78;;
56285;SDS011;42191;47.562;9.686;2022-12-07T15:20:00;45.40;;;42.00;;
56285;SDS011;42191;47.562;9.686;2022-12-07T15:22:26;43.92;;;40.60;;
56285;SDS011;42191;47.562;9.686;2022-12-07T15:24:52;43.38;;;39.83;;
56285;SDS011;42191;47.562;9.686;2022-12-07T15:27:18;43.90;;;40.50;;
56285;SDS011;42191;47.562;9.686;2022-12-07T15:29:44;42.60;;;39.42;;
56285;SDS011;42191;47.562;9.686;2022-12-07T15:32:10;45.17;;;41.50;;
56285;SDS011;42191;47.562;9.686;2022-12-07T15:34:37;45.33;;;41.78;;
56285;SDS011;42191;47.562;9.686;2022-12-07T15:37:03;46.42;;;42.25;;
56285;SDS011;42191;47.562;9.686;2022-12-07T15:39:29;44.63;;;40.85;;
56285;SDS011;42191;47.562;9.686;2022-12-07T15:41:55;45.85;;;41.90;;
56285;SDS011;42191;47.562;9.686;2022-12-07T15:44:22;46.70;;;42.80;;
56285;SDS011;42191;47.562;9.686;2022-12-07T15:47:06;46.45;;;42.50;;
56285;SDS011;42191;47.562;9.686;2022-12-07T15:49:33;46.38;;;42.40;;
56285;SDS011;42191;47.562;9.686;2022-12-07T15:51:59;47.88;;;43.95;;
56285;SDS011;42191;47.562;9.686;2022-12-07T15:54:26;46.78;;;42.95;;
56285;SDS011;42191;47.562;9.686;2022-12-07T15:56:53;45.80;;;42.10;;
56285;SDS011;42191;47.562;9.686;2022-12-07T15:59:20;47.20;;;43.65;;
56285;SDS011;42191;47.562;9.686;2022-12-07T16:01:47;46.78;;;43.03;;
56285;SDS011;42191;47.562;9.686;2022-12-07T16:04:13;48.20;;;44.10;;
56285;SDS011;42191;47.562;9.686;2022-12-07T16:06:39;47.85;;;43.95;;
56285;SDS011;42191;47.562;9.686;2022-12-07T16:09:06;47.50;;;43.50;;
56285;SDS011;42191;47.562;9.686;2022-12-07T16:11:32;46.80;;;43.10;;
56285;SDS011;42191;47.562;9.686;2022-12-07T16:13:58;48.42;;;44.55;;
56285;SDS011;42191;47.562;9.686;2022-12-07T16:16:25;46.83;;;43.13;;
56285;SDS011;42191;47.562;9.686;2022-12-07T16:18:52;49.13;;;45.25;;
56285;SDS011;42191;47.562;9.686;2022-12-07T16:21:19;48.25;;;44.15;;
56285;SDS011;42191;47.562;9.686;2022-12-07T16:23:46;46.60;;;42.65;;
56285;SDS011;42191;47.562;9.686;2022-12-07T16:26:19;44.85;;;41.30;;
56285;SDS011;42191;47.562;9.686;2022-12-07T16:28:49;45.40;;;41.50;;
56285;SDS011;42191;47.562;9.686;2022-12-07T16:31:17;46.75;;;43.03;;
56285;SDS011;42191;47.562;9.686;2022-12-07T16:33:45;47.70;;;43.78;;
56285;SDS011;42191;47.562;9.686;2022-12-07T16:36:11;48.95;;;44.95;;
56285;SDS011;42191;47.562;9.686;2022-12-07T16:38:40;50.85;;;46.47;;
56285;SDS011;42191;47.562;9.686;2022-12-07T16:41:08;49.88;;;45.47;;
56285;SDS011;42191;47.562;9.686;2022-12-07T16:43:35;49.70;;;45.40;;
56285;SDS011;42191;47.562;9.686;2022-12-07T16:46:02;51.13;;;46.58;;
56285;SDS011;42191;47.562;9.686;2022-12-07T16:48:28;49.88;;;45.58;;
56285;SDS011;42191;47.562;9.686;2022-12-07T16:50:55;48.33;;;44.22;;
56285;SDS011;42191;47.562;9.686;2022-12-07T16:53:22;46.83;;;43.13;;